createdAt,value
2018-11-22T12:16:25.715Z,76.73
2018-11-22T12:18:54.502Z,77.36
2018-11-22T12:21:23.955Z,77.07
2018-11-22T12:23:58.633Z,77.32
2018-11-22T12:26:33.129Z,77.02
2018-11-22T12:29:05.862Z,77.39
2018-11-22T12:31:37.283Z,77.35
2018-11-22T12:34:18.644Z,77.19
2018-11-22T12:37:01.274Z,76.97
2018-11-22T12:39:30.726Z,76.87
2018-11-22T12:42:09.286Z,77.43
2018-11-22T12:44:45.451Z,76.80
2018-11-22T12:47:21.317Z,77.07
2018-11-22T12:49:59.846Z,76.60
2018-11-22T12:52:35.906Z,76.11
2018-11-22T12:55:10.857Z,75.71
2018-11-22T12:57:50.120Z,76.09
2018-11-22T13:00:20.795Z,76.03
2018-11-22T13:02:59.758Z,76.62
2018-11-22T13:05:33.889Z,76.78
2018-11-22T13:08:06.716Z,77.04
2018-11-22T13:10:39.859Z,76.99
2018-11-22T13:13:08.648Z,75.79
2018-11-22T13:15:38.370Z,76.15
2018-11-22T13:18:16.043Z,76.15
2018-11-22T13:20:46.033Z,76.63
2018-11-22T13:23:26.825Z,77.22
2018-11-22T13:28:49.218Z,76.93
2018-11-22T13:31:21.130Z,76.76
2018-11-22T13:33:57.801Z,76.69
2018-11-22T13:36:29.551Z,76.70
2018-11-22T13:39:00.686Z,77.28
2018-11-22T13:41:35.568Z,76.99
2018-11-22T13:44:07.404Z,77.70
2018-11-22T13:46:36.910Z,77.66
2018-11-22T13:49:12.460Z,77.96
2018-11-22T13:51:43.051Z,77.44
2018-11-22T13:54:18.501Z,77.40
2018-11-22T13:56:53.180Z,77.56
2018-11-22T13:59:30.608Z,76.95
2018-11-22T14:02:03.007Z,77.38
2018-11-22T14:04:34.061Z,77.68
2018-11-22T14:07:07.542Z,77.99
2018-11-22T14:09:47.258Z,78.08
2018-11-22T14:12:18.422Z,78.27
2018-11-22T14:14:59.151Z,78.21
2018-11-22T14:17:34.073Z,78.12
2018-11-22T14:20:09.363Z,78.05
2018-11-22T14:22:39.076Z,77.81
2018-11-22T14:25:08.751Z,77.29
2018-11-22T14:27:43.743Z,77.39
2018-11-22T14:30:15.840Z,78.11
2018-11-22T14:32:48.932Z,77.01
2018-11-22T14:35:19.782Z,76.97
2018-11-22T14:37:49.827Z,76.83
2018-11-22T14:40:25.353Z,76.62
2018-11-22T14:43:01.653Z,76.33
2018-11-22T14:45:36.173Z,76.60
2018-11-22T14:48:06.565Z,76.72
2018-11-22T14:50:43.353Z,77.01
2018-11-22T14:53:16.930Z,76.73
2018-11-22T14:55:56.100Z,76.94
2018-11-22T14:58:27.328Z,77.23
2018-11-22T15:00:57.489Z,77.53
2018-11-22T15:03:32.844Z,77.73
2018-11-22T15:06:02.667Z,77.46
2018-11-22T15:08:45.944Z,77.24
2018-11-22T15:11:19.443Z,77.36
2018-11-22T15:13:51.371Z,76.91
2018-11-22T15:16:22.213Z,77.50
2018-11-22T15:18:51.790Z,78.06
2018-11-22T15:21:22.590Z,78.21
2018-11-22T15:23:55.296Z,77.69
2018-11-22T15:26:36.469Z,77.12
2018-11-22T15:29:06.726Z,77.28
2018-11-22T15:31:39.391Z,77.24
2018-11-22T15:34:14.610Z,77.70
2018-11-22T15:36:43.878Z,77.35
2018-11-22T15:39:16.163Z,77.96
2018-11-22T15:41:46.796Z,78.02
2018-11-22T15:44:21.182Z,78.28
2018-11-22T15:46:52.548Z,78.49
2018-11-22T15:49:24.344Z,78.88
2018-11-22T15:51:53.424Z,78.76
2018-11-22T15:54:22.327Z,78.65
2018-11-22T15:56:51.898Z,78.88
2018-11-22T15:59:20.568Z,79.01
2018-11-22T16:01:49.905Z,79.08
2018-11-22T16:04:18.833Z,79.63
2018-11-22T16:06:47.990Z,79.15
2018-11-22T16:09:17.037Z,79.16
2018-11-22T16:11:47.778Z,79.04
2018-11-22T16:14:16.690Z,79.75
2018-11-22T16:16:45.651Z,79.60
2018-11-22T16:19:16.318Z,79.50
2018-11-22T16:21:45.552Z,79.82
2018-11-22T16:24:14.386Z,79.72
2018-11-22T16:26:43.397Z,79.69
2018-11-22T16:29:12.591Z,79.65
2018-11-22T16:31:45.243Z,79.04
2018-11-22T16:34:14.797Z,79.40
2018-11-22T16:36:44.851Z,79.55
2018-11-22T16:39:15.550Z,79.64
2018-11-22T16:41:48.371Z,79.89
2018-11-22T16:44:24.583Z,79.39
2018-11-22T16:46:53.502Z,79.51
2018-11-22T16:49:23.363Z,79.16
2018-11-22T16:51:52.685Z,79.12
2018-11-22T16:54:22.923Z,78.97
2018-11-22T16:56:52.621Z,79.64
2018-11-22T16:59:28.157Z,79.07
2018-11-22T17:01:56.982Z,78.92
2018-11-22T17:04:28.534Z,79.12
2018-11-22T17:06:57.880Z,79.57
2018-11-22T17:09:28.578Z,79.46
2018-11-22T17:11:57.389Z,79.52
2018-11-22T17:14:26.735Z,79.31
2018-11-22T17:16:55.875Z,79.30
2018-11-22T17:19:24.550Z,79.31
2018-11-22T17:21:53.330Z,79.59
2018-11-22T17:24:22.438Z,78.54
2018-11-22T17:26:52.058Z,79.92
2018-11-22T17:29:20.887Z,79.99
2018-11-22T17:31:49.830Z,79.63
2018-11-22T17:34:19.312Z,79.70
2018-11-22T17:36:53.875Z,79.50
2018-11-22T17:39:23.702Z,79.54
2018-11-22T17:41:53.458Z,79.30
2018-11-22T17:44:23.406Z,79.66
2018-11-22T17:46:53.000Z,79.83
2018-11-22T17:49:23.727Z,79.39
2018-11-22T17:51:53.286Z,79.10
2018-11-22T17:54:24.026Z,79.27
2018-11-22T17:56:53.187Z,78.66
2018-11-22T17:59:28.068Z,78.68
2018-11-22T18:01:58.058Z,78.47
2018-11-22T18:04:26.918Z,78.52
2018-11-22T18:06:59.336Z,78.61
2018-11-22T18:09:28.727Z,78.69
2018-11-22T18:11:58.018Z,78.39
2018-11-22T18:14:27.704Z,78.88
2018-11-22T18:16:57.166Z,79.06
2018-11-22T18:19:26.315Z,79.12
2018-11-22T18:21:55.463Z,78.92
2018-11-22T18:24:24.650Z,78.90
2018-11-22T18:26:53.766Z,78.85
2018-11-22T18:29:25.062Z,79.14
2018-11-22T18:31:54.926Z,79.42
2018-11-22T18:34:26.171Z,79.96
2018-11-22T18:36:55.689Z,79.96
2018-11-22T18:39:24.857Z,80.13
2018-11-22T18:41:53.922Z,80.17
2018-11-22T18:44:23.998Z,80.15
2018-11-22T18:46:53.226Z,80.36
2018-11-22T18:49:23.290Z,80.39
2018-11-22T18:51:52.341Z,80.80
2018-11-22T18:54:22.365Z,80.65
2018-11-22T18:56:51.706Z,80.57
2018-11-22T18:59:20.367Z,81.10
2018-11-22T19:01:49.515Z,81.52
2018-11-22T19:04:18.118Z,81.50
2018-11-22T19:06:47.574Z,81.44
2018-11-22T19:09:17.093Z,81.84
2018-11-22T19:11:47.742Z,81.92
2018-11-22T19:14:19.886Z,82.21
2018-11-22T19:16:49.805Z,82.39
2018-11-22T19:19:19.666Z,82.79
2018-11-22T19:21:49.753Z,82.82
2018-11-22T19:24:20.851Z,82.59
2018-11-22T19:26:50.789Z,82.49
2018-11-22T19:29:21.224Z,82.91
2018-11-22T19:31:52.122Z,83.26
2018-11-22T19:34:22.348Z,83.21
2018-11-22T19:36:51.494Z,83.34
2018-11-22T19:39:21.147Z,83.42
2018-11-22T19:41:50.536Z,83.57
2018-11-22T19:44:22.149Z,83.52
2018-11-22T19:46:51.910Z,83.44
2018-11-22T19:49:21.498Z,83.51
2018-11-22T19:51:52.209Z,83.47
2018-11-22T19:54:21.534Z,83.44
2018-11-22T19:56:50.956Z,83.16
2018-11-22T19:59:21.350Z,82.85
2018-11-22T20:01:50.244Z,82.75
2018-11-22T20:04:23.544Z,82.01
2018-11-22T20:06:52.526Z,82.05
2018-11-22T20:09:24.685Z,82.41
2018-11-22T20:11:54.055Z,82.47
2018-11-22T20:14:29.006Z,82.35
2018-11-22T20:16:58.466Z,82.22
2018-11-22T20:19:27.706Z,82.47
2018-11-22T20:21:57.201Z,83.10
2018-11-22T20:24:26.864Z,83.07
2018-11-22T20:27:00.289Z,83.30
2018-11-22T20:29:28.912Z,83.70
2018-11-22T20:31:58.203Z,84.22
2018-11-22T20:34:27.882Z,84.25
2018-11-22T20:36:56.908Z,84.38
2018-11-22T20:39:26.088Z,84.31
2018-11-22T20:41:54.994Z,84.83
2018-11-22T20:44:24.010Z,84.58
2018-11-22T20:46:53.042Z,84.76
2018-11-22T20:49:23.702Z,84.87
2018-11-22T20:51:52.761Z,84.92
2018-11-22T20:54:21.656Z,84.81
2018-11-22T20:56:50.469Z,84.57
2018-11-22T20:59:19.090Z,84.66
2018-11-22T21:01:51.770Z,84.58
2018-11-22T21:04:18.136Z,84.37
2018-11-22T21:06:47.041Z,84.23
2018-11-22T21:09:16.170Z,84.09
2018-11-22T21:11:46.010Z,84.59
2018-11-22T21:14:15.106Z,85.02
2018-11-22T21:16:44.929Z,84.89
2018-11-22T21:19:13.966Z,84.73
2018-11-22T21:21:43.030Z,84.87
2018-11-22T21:24:12.033Z,85.13
2018-11-22T21:26:41.464Z,85.19
2018-11-22T21:29:11.346Z,85.27
2018-11-22T21:31:41.175Z,85.22
2018-11-22T21:34:11.462Z,85.25
2018-11-22T21:36:40.146Z,85.19
2018-11-22T21:39:10.358Z,84.97
2018-11-22T21:41:39.507Z,85.04
2018-11-22T21:44:09.478Z,84.82
2018-11-22T21:46:39.536Z,84.87
2018-11-22T21:49:08.454Z,84.83
2018-11-22T21:51:39.555Z,85.06
2018-11-22T21:54:08.159Z,85.16
2018-11-22T21:56:37.441Z,85.17
2018-11-22T21:59:06.974Z,85.34
2018-11-22T22:01:36.271Z,85.20
2018-11-22T22:04:06.494Z,84.99
2018-11-22T22:06:36.446Z,84.92
2018-11-22T22:09:07.462Z,84.95
2018-11-22T22:11:37.633Z,85.21
2018-11-22T22:14:06.725Z,85.32
2018-11-22T22:16:36.437Z,85.35
2018-11-22T22:19:05.954Z,85.43
2018-11-22T22:21:35.503Z,85.55
2018-11-22T22:24:04.558Z,85.74
2018-11-22T22:26:34.004Z,86.01
2018-11-22T22:29:04.618Z,85.88
2018-11-22T22:31:33.988Z,85.99
2018-11-22T22:34:02.601Z,86.24
2018-11-22T22:36:31.647Z,86.24
2018-11-22T22:39:01.286Z,86.69
2018-11-22T22:41:31.975Z,86.73
2018-11-22T22:44:01.050Z,87.16
2018-11-22T22:46:30.545Z,86.72
2018-11-22T22:48:59.784Z,86.83
2018-11-22T22:51:29.383Z,86.95
2018-11-22T22:53:59.088Z,86.68
2018-11-22T22:56:28.531Z,86.75
2018-11-22T22:58:58.249Z,87.05
2018-11-22T23:01:27.980Z,87.19
2018-11-22T23:03:57.524Z,87.30
2018-11-22T23:06:27.662Z,87.28
2018-11-22T23:08:56.773Z,86.95
2018-11-22T23:11:29.674Z,86.80
2018-11-22T23:13:59.817Z,87.11
2018-11-22T23:16:28.675Z,87.33
2018-11-22T23:18:58.632Z,87.54
2018-11-22T23:21:28.810Z,87.52
2018-11-22T23:23:58.498Z,87.69
2018-11-22T23:26:27.439Z,87.79
2018-11-22T23:28:58.089Z,87.51
2018-11-22T23:31:27.263Z,87.80
2018-11-22T23:33:56.638Z,87.45
2018-11-22T23:36:25.589Z,87.26
2018-11-22T23:38:55.349Z,87.34
2018-11-22T23:41:25.018Z,87.67
2018-11-22T23:43:53.818Z,87.43
2018-11-22T23:46:26.233Z,87.81
2018-11-22T23:48:55.522Z,87.78
2018-11-22T23:51:24.993Z,87.74
2018-11-22T23:53:53.937Z,87.83
2018-11-22T23:56:22.976Z,88.14
2018-11-22T23:58:51.845Z,88.21
